createdAt,value
2022-11-30T00:00:27.458Z,3
2022-11-30T00:01:29.255Z,3
2022-11-30T00:02:29.457Z,1
2022-11-30T00:03:29.438Z,1
2022-11-30T00:04:28.904Z,1
2022-11-30T00:05:29.281Z,1
2022-11-30T00:06:28.700Z,1
2022-11-30T00:07:29.513Z,1
2022-11-30T00:08:28.631Z,1
2022-11-30T00:09:29.142Z,1
2022-11-30T00:10:28.535Z,1
2022-11-30T00:11:29.025Z,1
2022-11-30T00:12:28.519Z,1
2022-11-30T00:13:28.982Z,1
2022-11-30T00:14:29.420Z,1
2022-11-30T00:15:28.867Z,1
2022-11-30T00:16:29.172Z,1
2022-11-30T00:17:29.222Z,0
2022-11-30T00:18:28.902Z,0
2022-11-30T00:19:29.282Z,0
2022-11-30T00:20:28.615Z,0
2022-11-30T00:21:29.128Z,0
2022-11-30T00:22:29.023Z,0
2022-11-30T00:23:29.448Z,0
2022-11-30T00:24:28.275Z,0
2022-11-30T00:25:28.253Z,0
2022-11-30T00:26:28.518Z,0
2022-11-30T00:27:27.528Z,0
2022-11-30T00:28:29.318Z,0
2022-11-30T00:29:29.127Z,0
2022-11-30T00:30:29.592Z,0
2022-11-30T00:31:29.177Z,0
2022-11-30T00:32:28.977Z,4
2022-11-30T00:33:28.718Z,4
2022-11-30T00:34:28.854Z,4
2022-11-30T00:35:29.317Z,4
2022-11-30T00:36:28.863Z,4
2022-11-30T00:37:29.224Z,4
2022-11-30T00:38:29.030Z,4
2022-11-30T00:39:35.544Z,4
2022-11-30T00:40:28.953Z,4
2022-11-30T00:41:29.292Z,4
2022-11-30T00:42:29.391Z,4
2022-11-30T00:43:28.821Z,4
2022-11-30T00:44:29.311Z,4
2022-11-30T00:45:29.314Z,4
2022-11-30T00:46:28.950Z,4
2022-11-30T00:47:28.886Z,1
2022-11-30T00:48:29.280Z,1
2022-11-30T00:49:28.770Z,1
2022-11-30T00:50:28.508Z,1
2022-11-30T00:51:28.945Z,1
2022-11-30T00:52:28.844Z,1
2022-11-30T00:53:27.863Z,1
2022-11-30T00:54:29.316Z,1
2022-11-30T00:55:30.384Z,1
2022-11-30T00:56:31.217Z,1
2022-11-30T00:57:28.789Z,1
2022-11-30T00:58:28.659Z,1
2022-11-30T00:59:29.082Z,1
2022-11-30T01:00:29.001Z,1
2022-11-30T01:01:29.468Z,1
2022-11-30T01:02:29.692Z,0
2022-11-30T01:03:28.905Z,0
2022-11-30T01:04:29.058Z,0
2022-11-30T01:05:29.426Z,0
2022-11-30T01:06:29.006Z,0
2022-11-30T01:07:29.151Z,0
2022-11-30T01:08:29.267Z,0
2022-11-30T01:09:29.437Z,0
2022-11-30T01:10:28.744Z,0
2022-11-30T01:11:29.427Z,0
2022-11-30T01:12:28.555Z,0
2022-11-30T01:13:29.328Z,0
2022-11-30T01:14:28.537Z,0
2022-11-30T01:15:28.991Z,0
2022-11-30T01:16:28.300Z,0
2022-11-30T01:17:28.850Z,0
2022-11-30T01:18:29.089Z,0
2022-11-30T01:19:27.397Z,0
2022-11-30T01:20:28.988Z,0
2022-11-30T01:21:28.511Z,0
2022-11-30T01:22:28.891Z,0
2022-11-30T01:23:28.631Z,0
2022-11-30T01:24:27.957Z,0
2022-11-30T01:25:28.717Z,0
2022-11-30T01:26:29.107Z,0
2022-11-30T01:27:28.697Z,0
2022-11-30T01:28:28.957Z,0
2022-11-30T01:29:29.172Z,0
2022-11-30T01:30:28.738Z,0
2022-11-30T01:31:29.255Z,0
2022-11-30T01:32:29.119Z,0
2022-11-30T01:33:28.355Z,0
2022-11-30T01:34:29.466Z,0
2022-11-30T01:35:29.143Z,0
2022-11-30T01:36:28.340Z,0
2022-11-30T01:37:28.912Z,0
2022-11-30T01:38:28.964Z,0
2022-11-30T01:39:28.500Z,0
2022-11-30T01:40:28.652Z,0
2022-11-30T01:41:29.099Z,0
2022-11-30T01:42:28.481Z,0
2022-11-30T01:43:28.706Z,0
2022-11-30T01:44:28.773Z,0
2022-11-30T01:45:28.936Z,0
2022-11-30T01:46:29.606Z,0
2022-11-30T01:47:29.475Z,0
2022-11-30T01:48:28.906Z,0
2022-11-30T01:49:29.215Z,0
2022-11-30T01:50:28.708Z,0
2022-11-30T01:51:29.059Z,0
2022-11-30T01:52:29.402Z,0
2022-11-30T01:53:28.639Z,0
2022-11-30T01:54:27.695Z,0
2022-11-30T01:55:28.817Z,0
2022-11-30T01:56:29.389Z,0
2022-11-30T01:57:28.615Z,0
2022-11-30T01:58:28.228Z,0
2022-11-30T01:59:29.056Z,0
2022-11-30T02:00:29.382Z,0
2022-11-30T02:01:29.074Z,0
2022-11-30T02:02:28.986Z,1
2022-11-30T02:03:28.689Z,1
2022-11-30T02:04:29.356Z,1
2022-11-30T02:05:28.749Z,1
2022-11-30T02:06:29.196Z,1
2022-11-30T02:07:29.045Z,1
2022-11-30T02:08:29.709Z,1
2022-11-30T02:09:28.725Z,1
2022-11-30T02:10:29.395Z,1
2022-11-30T02:11:28.871Z,1
2022-11-30T02:12:29.415Z,1
2022-11-30T02:13:28.699Z,1
2022-11-30T02:14:28.831Z,1
2022-11-30T02:15:29.242Z,1
2022-11-30T02:16:29.957Z,1
2022-11-30T02:17:28.459Z,0
2022-11-30T02:18:28.599Z,0
2022-11-30T02:19:28.903Z,0
2022-11-30T02:20:29.466Z,0
2022-11-30T02:21:29.327Z,0
2022-11-30T02:22:28.589Z,0
2022-11-30T02:23:29.906Z,0
2022-11-30T02:24:28.504Z,0
2022-11-30T02:25:28.810Z,0
2022-11-30T02:26:29.300Z,0
2022-11-30T02:27:28.261Z,0
2022-11-30T02:28:29.673Z,0
2022-11-30T02:29:28.547Z,0
2022-11-30T02:30:29.071Z,0
2022-11-30T02:31:29.716Z,0
2022-11-30T02:32:29.069Z,0
2022-11-30T02:33:29.290Z,0
2022-11-30T02:34:28.826Z,0
2022-11-30T02:35:28.987Z,0
2022-11-30T02:36:29.326Z,0
2022-11-30T02:37:28.819Z,0
2022-11-30T02:38:29.271Z,0
2022-11-30T02:39:28.713Z,0
2022-11-30T02:40:29.260Z,0
2022-11-30T02:41:28.543Z,0
2022-11-30T02:42:28.983Z,0
2022-11-30T02:43:29.562Z,0
2022-11-30T02:44:28.852Z,0
2022-11-30T02:45:29.288Z,0
2022-11-30T02:46:29.669Z,0
2022-11-30T02:47:28.689Z,0
2022-11-30T02:48:29.076Z,0
2022-11-30T02:49:29.282Z,0
2022-11-30T02:50:29.364Z,0
2022-11-30T02:51:28.786Z,0
2022-11-30T02:52:29.231Z,0
2022-11-30T02:53:28.783Z,0
2022-11-30T02:54:29.005Z,0
2022-11-30T02:55:28.452Z,0
2022-11-30T02:56:28.685Z,0
2022-11-30T02:57:28.658Z,0
2022-11-30T02:58:28.927Z,0
2022-11-30T02:59:28.509Z,0
2022-11-30T03:00:29.424Z,0
2022-11-30T03:01:29.476Z,0
2022-11-30T03:02:29.030Z,1
2022-11-30T03:03:29.040Z,1
2022-11-30T03:04:29.290Z,1
2022-11-30T03:05:28.703Z,1
2022-11-30T03:06:29.220Z,1
2022-11-30T03:07:29.000Z,1
2022-11-30T03:08:28.458Z,1
2022-11-30T03:09:27.710Z,1
2022-11-30T03:10:28.618Z,1
2022-11-30T03:11:29.365Z,1
2022-11-30T03:12:28.834Z,1
2022-11-30T03:13:29.449Z,1
2022-11-30T03:14:28.788Z,1
2022-11-30T03:15:29.227Z,1
2022-11-30T03:16:29.503Z,1
2022-11-30T03:17:29.032Z,0
2022-11-30T03:18:29.210Z,0
2022-11-30T03:19:29.322Z,0
2022-11-30T03:20:28.757Z,0
2022-11-30T03:21:28.547Z,0
2022-11-30T03:22:29.139Z,0
2022-11-30T03:23:28.391Z,0
2022-11-30T03:24:29.218Z,0
2022-11-30T03:25:28.664Z,0
2022-11-30T03:26:28.984Z,0
2022-11-30T03:27:28.526Z,0
2022-11-30T03:28:28.508Z,0
2022-11-30T03:29:28.945Z,0
2022-11-30T03:30:29.348Z,0
2022-11-30T03:31:28.718Z,0
2022-11-30T03:32:29.490Z,1
2022-11-30T03:33:28.896Z,1
2022-11-30T03:34:29.213Z,1
2022-11-30T03:35:29.337Z,1
2022-11-30T03:36:27.941Z,1
2022-11-30T03:37:28.054Z,1
2022-11-30T03:38:29.435Z,1
2022-11-30T03:39:28.913Z,1
2022-11-30T03:40:28.843Z,1
2022-11-30T03:41:29.159Z,1
2022-11-30T03:42:29.202Z,1
2022-11-30T03:43:28.696Z,1
2022-11-30T03:44:28.904Z,1
2022-11-30T03:45:28.677Z,1
2022-11-30T03:46:28.739Z,1
2022-11-30T03:47:29.229Z,1
2022-11-30T03:48:28.567Z,1
2022-11-30T03:49:29.129Z,1
2022-11-30T03:50:29.232Z,1
2022-11-30T03:51:28.659Z,1
2022-11-30T03:52:29.212Z,1
2022-11-30T03:53:29.003Z,1
2022-11-30T03:54:28.818Z,1
2022-11-30T03:55:29.277Z,1
2022-11-30T03:56:28.611Z,1
2022-11-30T03:57:28.833Z,1
2022-11-30T03:58:29.330Z,1
2022-11-30T03:59:28.646Z,1
2022-11-30T04:00:29.131Z,1
2022-11-30T04:01:29.519Z,1
2022-11-30T04:02:29.906Z,1
2022-11-30T04:03:29.089Z,1
2022-11-30T04:04:29.354Z,1
2022-11-30T04:05:28.443Z,1
2022-11-30T04:06:28.029Z,1
2022-11-30T04:07:28.580Z,1
2022-11-30T04:08:27.486Z,1
2022-11-30T04:09:28.484Z,1
2022-11-30T04:10:28.971Z,1
2022-11-30T04:11:29.145Z,1
2022-11-30T04:12:28.848Z,1
2022-11-30T04:13:29.182Z,1
2022-11-30T04:14:28.826Z,1
2022-11-30T04:15:28.458Z,1
2022-11-30T04:16:28.759Z,1
2022-11-30T04:17:29.141Z,3
2022-11-30T04:18:28.496Z,3
2022-11-30T04:19:29.392Z,3
2022-11-30T04:20:28.799Z,3
2022-11-30T04:21:28.790Z,3
2022-11-30T04:22:30.096Z,3
2022-11-30T04:23:29.111Z,3
2022-11-30T04:24:29.337Z,3
2022-11-30T04:25:28.915Z,3
2022-11-30T04:26:28.772Z,3
2022-11-30T04:27:29.267Z,3
2022-11-30T04:28:28.769Z,3
2022-11-30T04:29:28.663Z,3
2022-11-30T04:30:28.986Z,3
2022-11-30T04:31:28.965Z,3
2022-11-30T04:32:29.403Z,3
2022-11-30T04:33:28.835Z,3
2022-11-30T04:34:29.185Z,3
2022-11-30T04:35:27.851Z,3
2022-11-30T04:36:29.285Z,3
2022-11-30T04:37:28.504Z,3
2022-11-30T04:38:29.024Z,3
2022-11-30T04:39:29.044Z,3
2022-11-30T04:40:29.450Z,3
2022-11-30T04:41:28.799Z,3
2022-11-30T04:42:29.279Z,3
2022-11-30T04:43:28.817Z,3
2022-11-30T04:44:29.256Z,3
2022-11-30T04:45:35.278Z,3
2022-11-30T04:46:29.123Z,3
2022-11-30T04:47:28.579Z,1
2022-11-30T04:48:28.880Z,1
2022-11-30T04:49:29.376Z,1
2022-11-30T04:50:28.817Z,1
2022-11-30T04:51:29.178Z,1
2022-11-30T04:52:28.722Z,1
2022-11-30T04:53:29.142Z,1
2022-11-30T04:54:29.431Z,1
2022-11-30T04:55:28.959Z,1
2022-11-30T04:56:28.367Z,1
2022-11-30T04:57:28.842Z,1
2022-11-30T04:58:29.315Z,1
2022-11-30T04:59:28.708Z,1
2022-11-30T05:00:27.943Z,1
2022-11-30T05:01:29.449Z,1
2022-11-30T05:02:28.657Z,0
2022-11-30T05:03:29.177Z,0
2022-11-30T05:04:29.227Z,0
2022-11-30T05:05:29.183Z,0
2022-11-30T05:06:28.940Z,0
2022-11-30T05:07:28.205Z,0
2022-11-30T05:08:29.285Z,0
2022-11-30T05:09:28.657Z,0
2022-11-30T05:10:28.577Z,0
2022-11-30T05:11:29.498Z,0
2022-11-30T05:12:29.297Z,0
2022-11-30T05:13:28.728Z,0
2022-11-30T05:14:29.195Z,0
2022-11-30T05:15:28.936Z,0
2022-11-30T05:16:29.500Z,0
2022-11-30T05:17:28.623Z,0
2022-11-30T05:18:28.716Z,0
2022-11-30T05:19:29.050Z,0
2022-11-30T05:20:29.061Z,0
2022-11-30T05:21:28.707Z,0
2022-11-30T05:22:29.143Z,0
2022-11-30T05:23:28.827Z,0
2022-11-30T05:24:29.381Z,0
2022-11-30T05:25:29.234Z,0
2022-11-30T05:26:28.587Z,0
2022-11-30T05:27:31.188Z,0
2022-11-30T05:28:28.836Z,0
2022-11-30T05:29:29.195Z,0
2022-11-30T05:30:28.205Z,0
2022-11-30T05:31:27.962Z,0
2022-11-30T05:32:29.380Z,3
2022-11-30T05:33:28.683Z,3
2022-11-30T05:34:28.867Z,3
2022-11-30T05:35:29.447Z,3
2022-11-30T05:36:28.744Z,3
2022-11-30T05:37:29.197Z,3
2022-11-30T05:38:27.791Z,3
2022-11-30T05:39:28.924Z,3
2022-11-30T05:40:28.765Z,3
2022-11-30T05:41:28.986Z,3
2022-11-30T05:42:28.742Z,3
2022-11-30T05:43:29.087Z,3
2022-11-30T05:44:29.120Z,3
2022-11-30T05:45:28.620Z,3
2022-11-30T05:46:29.381Z,3
2022-11-30T05:47:28.834Z,1
2022-11-30T05:48:28.183Z,1
2022-11-30T05:49:27.517Z,1
2022-11-30T05:50:27.831Z,1
2022-11-30T05:51:28.989Z,1
2022-11-30T05:52:28.166Z,1
2022-11-30T05:53:28.569Z,1
2022-11-30T05:54:28.539Z,1
2022-11-30T05:55:28.895Z,1
2022-11-30T05:56:29.140Z,1
2022-11-30T05:57:29.411Z,1
2022-11-30T05:58:29.035Z,1
2022-11-30T05:59:29.519Z,1
2022-11-30T06:00:28.805Z,1
2022-11-30T06:01:28.852Z,1
2022-11-30T06:02:36.605Z,1
2022-11-30T06:03:29.298Z,1
2022-11-30T06:04:29.301Z,1
2022-11-30T06:05:28.792Z,1
2022-11-30T06:06:27.814Z,1
2022-11-30T06:07:28.900Z,1
2022-11-30T06:08:29.476Z,1
2022-11-30T06:09:28.938Z,1
2022-11-30T06:10:28.655Z,1
2022-11-30T06:11:29.272Z,1
2022-11-30T06:12:28.716Z,1
2022-11-30T06:13:35.701Z,1
2022-11-30T06:14:29.350Z,1
2022-11-30T06:15:29.022Z,1
2022-11-30T06:16:29.608Z,1
2022-11-30T06:17:29.186Z,4
2022-11-30T06:18:28.573Z,4
2022-11-30T06:19:28.484Z,4
2022-11-30T06:20:28.930Z,4
2022-11-30T06:21:33.050Z,4
2022-11-30T06:22:29.225Z,4
2022-11-30T06:23:28.956Z,4
2022-11-30T06:24:28.882Z,4
2022-11-30T06:25:29.237Z,4
2022-11-30T06:26:28.857Z,4
2022-11-30T06:27:27.728Z,4
2022-11-30T06:28:29.245Z,4
2022-11-30T06:29:29.050Z,4
2022-11-30T06:30:29.335Z,4
2022-11-30T06:31:29.695Z,4
2022-11-30T06:32:28.756Z,3
2022-11-30T06:33:28.600Z,3
2022-11-30T06:34:29.109Z,3
2022-11-30T06:35:28.680Z,3
2022-11-30T06:36:36.185Z,3
2022-11-30T06:37:28.746Z,3
2022-11-30T06:38:29.199Z,3
2022-11-30T06:40:13.092Z,3
2022-11-30T06:41:29.144Z,3
2022-11-30T06:42:28.559Z,3
2022-11-30T06:43:28.944Z,3
2022-11-30T06:44:29.094Z,3
2022-11-30T06:45:28.520Z,3
2022-11-30T06:46:29.345Z,3
2022-11-30T06:47:28.748Z,3
2022-11-30T06:48:27.642Z,3
2022-11-30T06:49:28.421Z,3
2022-11-30T06:50:28.828Z,3
2022-11-30T06:51:28.976Z,3
2022-11-30T06:52:28.895Z,3
2022-11-30T06:53:29.255Z,3
2022-11-30T06:54:29.053Z,3
2022-11-30T06:55:28.619Z,3
2022-11-30T06:56:29.456Z,3
2022-11-30T06:57:29.211Z,3
2022-11-30T06:58:28.248Z,3
2022-11-30T06:59:28.570Z,3
2022-11-30T07:00:29.316Z,3
2022-11-30T07:01:29.778Z,3
2022-11-30T07:02:28.837Z,1
2022-11-30T07:03:28.909Z,1
2022-11-30T07:04:29.402Z,1
2022-11-30T07:05:28.938Z,1
2022-11-30T07:06:29.122Z,1
2022-11-30T07:07:28.995Z,1
2022-11-30T07:08:28.507Z,1
2022-11-30T07:09:29.352Z,1
2022-11-30T07:10:28.866Z,1
2022-11-30T07:11:27.606Z,1
2022-11-30T07:12:28.828Z,1
2022-11-30T07:13:27.493Z,1
2022-11-30T07:14:29.017Z,1
2022-11-30T07:15:28.611Z,1
2022-11-30T07:16:29.784Z,1
2022-11-30T07:17:28.843Z,1
2022-11-30T07:18:36.315Z,1
2022-11-30T07:19:28.854Z,1
2022-11-30T07:20:28.739Z,1
2022-11-30T07:21:29.031Z,1
2022-11-30T07:22:29.141Z,1
2022-11-30T07:23:28.661Z,1
2022-11-30T07:24:28.621Z,1
2022-11-30T07:25:28.960Z,1
2022-11-30T07:26:29.325Z,1
2022-11-30T07:27:29.198Z,1
2022-11-30T07:28:28.569Z,1
2022-11-30T07:29:28.926Z,1
2022-11-30T07:30:28.829Z,1
2022-11-30T07:31:29.154Z,1
2022-11-30T07:32:29.058Z,4
2022-11-30T07:33:29.309Z,4
2022-11-30T07:34:29.385Z,4
2022-11-30T07:35:28.532Z,4
2022-11-30T07:36:29.054Z,4
2022-11-30T07:37:28.484Z,4
2022-11-30T07:38:29.085Z,4
2022-11-30T07:39:28.895Z,4
2022-11-30T07:40:29.318Z,4
2022-11-30T07:41:29.336Z,4
2022-11-30T07:42:29.364Z,4
2022-11-30T07:43:28.746Z,4
2022-11-30T07:44:29.415Z,4
2022-11-30T07:45:28.719Z,4
2022-11-30T07:46:29.631Z,4
2022-11-30T07:47:28.805Z,3
2022-11-30T07:48:28.492Z,3
2022-11-30T07:49:29.238Z,3
2022-11-30T07:50:28.831Z,3
2022-11-30T07:51:29.180Z,3
2022-11-30T07:52:29.092Z,3
2022-11-30T07:53:29.527Z,3
2022-11-30T07:54:28.995Z,3
2022-11-30T07:55:29.440Z,3
2022-11-30T07:56:28.387Z,3
2022-11-30T07:57:29.153Z,3
2022-11-30T07:58:28.039Z,3
2022-11-30T07:59:29.434Z,3
2022-11-30T08:00:29.151Z,3
2022-11-30T08:01:29.733Z,3
2022-11-30T08:02:28.947Z,4
2022-11-30T08:03:32.352Z,4
2022-11-30T08:04:28.029Z,4
2022-11-30T08:05:29.341Z,4
2022-11-30T08:06:28.720Z,4
2022-11-30T08:07:28.775Z,4
2022-11-30T08:08:28.762Z,4
2022-11-30T08:09:29.450Z,4
2022-11-30T08:10:28.978Z,4
2022-11-30T08:11:29.233Z,4
2022-11-30T08:12:28.569Z,4
2022-11-30T08:13:28.933Z,4
2022-11-30T08:14:28.784Z,4
2022-11-30T08:15:39.680Z,4
2022-11-30T08:16:29.099Z,4
2022-11-30T08:17:29.294Z,1
2022-11-30T08:18:28.594Z,1
2022-11-30T08:19:29.147Z,1
2022-11-30T08:20:29.334Z,1
2022-11-30T08:21:28.692Z,1
2022-11-30T08:22:28.825Z,1
2022-11-30T08:23:29.382Z,1
2022-11-30T08:24:29.189Z,1
2022-11-30T08:25:29.316Z,1
2022-11-30T08:26:28.423Z,1
2022-11-30T08:27:28.771Z,1
2022-11-30T08:28:28.768Z,1
2022-11-30T08:29:29.288Z,1
2022-11-30T08:30:35.681Z,1
2022-11-30T08:31:29.698Z,1
2022-11-30T08:32:28.593Z,4
2022-11-30T08:33:32.851Z,4
2022-11-30T08:34:28.607Z,4
2022-11-30T08:35:29.347Z,4
2022-11-30T08:36:28.804Z,4
2022-11-30T08:37:29.069Z,4
2022-11-30T08:38:28.574Z,4
2022-11-30T08:39:29.083Z,4
2022-11-30T08:40:29.064Z,4
2022-11-30T08:41:29.444Z,4
2022-11-30T08:42:28.916Z,4
2022-11-30T08:43:28.573Z,4
2022-11-30T08:44:29.467Z,4
2022-11-30T08:45:27.699Z,4
2022-11-30T08:47:00.326Z,4
2022-11-30T08:47:29.119Z,3
2022-11-30T08:48:28.866Z,3
2022-11-30T08:50:28.627Z,3
2022-11-30T08:51:34.365Z,3
2022-11-30T08:52:28.858Z,3
2022-11-30T08:53:28.864Z,3
2022-11-30T08:54:29.450Z,3
2022-11-30T08:55:28.769Z,3
2022-11-30T08:56:29.202Z,3
2022-11-30T08:57:28.742Z,3
2022-11-30T08:58:28.989Z,3
2022-11-30T08:59:29.391Z,3
2022-11-30T09:00:29.030Z,3
2022-11-30T09:00:58.178Z,3
2022-11-30T09:01:35.237Z,3
2022-11-30T09:02:29.611Z,3
2022-11-30T09:03:29.465Z,3
2022-11-30T09:04:28.869Z,3
2022-11-30T09:05:29.553Z,3
2022-11-30T09:06:28.998Z,3
2022-11-30T09:07:29.723Z,3
2022-11-30T09:08:28.682Z,3
2022-11-30T09:09:29.059Z,3
2022-11-30T09:10:28.728Z,3
2022-11-30T09:11:28.983Z,3
2022-11-30T09:12:29.442Z,3
2022-11-30T09:13:28.762Z,3
2022-11-30T09:14:29.249Z,3
2022-11-30T09:15:29.351Z,3
2022-11-30T09:16:28.572Z,3
2022-11-30T09:17:28.561Z,4
2022-11-30T09:18:29.024Z,4
2022-11-30T09:19:29.476Z,4
2022-11-30T09:20:29.287Z,4
2022-11-30T09:21:28.609Z,4
2022-11-30T09:22:29.257Z,4
2022-11-30T09:23:29.219Z,4
2022-11-30T09:24:29.014Z,4
2022-11-30T09:25:28.893Z,4
2022-11-30T09:26:28.815Z,4
2022-11-30T09:27:29.172Z,4
2022-11-30T09:28:28.496Z,4
2022-11-30T09:29:29.526Z,4
2022-11-30T09:30:28.618Z,4
2022-11-30T09:31:29.210Z,4
2022-11-30T09:32:29.194Z,5
2022-11-30T09:33:28.651Z,5
2022-11-30T09:34:29.379Z,5
2022-11-30T09:35:28.723Z,5
2022-11-30T09:36:28.919Z,5
2022-11-30T09:37:28.922Z,5
2022-11-30T09:38:28.947Z,5
2022-11-30T09:39:29.312Z,5
2022-11-30T09:40:36.012Z,5
2022-11-30T09:41:29.544Z,5
2022-11-30T09:42:29.193Z,5
2022-11-30T09:43:29.225Z,5
2022-11-30T09:44:29.424Z,5
2022-11-30T09:45:28.510Z,5
2022-11-30T09:46:28.835Z,5
2022-11-30T09:47:36.561Z,1
2022-11-30T09:48:28.783Z,1
2022-11-30T09:49:29.525Z,1
2022-11-30T09:50:28.662Z,1
2022-11-30T09:51:29.134Z,1
2022-11-30T09:52:29.171Z,1
2022-11-30T09:53:36.265Z,1
2022-11-30T09:54:28.859Z,1
2022-11-30T09:55:28.947Z,1
2022-11-30T09:56:29.067Z,1
2022-11-30T09:57:28.981Z,1
2022-11-30T09:58:29.529Z,1
2022-11-30T09:59:28.697Z,1
2022-11-30T10:00:28.970Z,1
2022-11-30T10:01:34.775Z,1
2022-11-30T10:02:29.994Z,4
2022-11-30T10:03:30.152Z,4
2022-11-30T10:04:28.963Z,4
2022-11-30T10:05:29.367Z,4
2022-11-30T10:06:28.775Z,4
2022-11-30T10:07:29.486Z,4
2022-11-30T10:08:28.449Z,4
2022-11-30T10:09:28.406Z,4
2022-11-30T10:10:43.253Z,4
2022-11-30T10:11:29.014Z,4
2022-11-30T10:12:29.476Z,4
2022-11-30T10:13:28.815Z,4
2022-11-30T10:14:29.417Z,4
2022-11-30T10:15:29.279Z,4
2022-11-30T10:16:29.907Z,4
2022-11-30T10:17:28.956Z,4
2022-11-30T10:18:29.313Z,4
2022-11-30T10:19:29.442Z,4
2022-11-30T10:20:28.815Z,4
2022-11-30T10:21:29.392Z,4
2022-11-30T10:22:29.487Z,4
2022-11-30T10:23:28.806Z,4
2022-11-30T10:24:29.169Z,4
2022-11-30T10:25:28.751Z,4
2022-11-30T10:26:29.074Z,4
2022-11-30T10:27:29.254Z,4
2022-11-30T10:28:58.899Z,4
2022-11-30T10:29:28.940Z,4
2022-11-30T10:30:29.085Z,4
2022-11-30T10:31:29.348Z,4
2022-11-30T10:32:28.905Z,4
2022-11-30T10:33:30.539Z,4
2022-11-30T10:34:29.198Z,4
2022-11-30T10:35:29.488Z,4
2022-11-30T10:36:28.973Z,4
2022-11-30T10:37:29.463Z,4
2022-11-30T10:38:28.879Z,4
2022-11-30T10:39:29.376Z,4
2022-11-30T10:40:29.157Z,4
2022-11-30T10:41:29.514Z,4
2022-11-30T10:42:28.978Z,4
2022-11-30T10:43:29.405Z,4
2022-11-30T10:44:28.666Z,4
2022-11-30T10:45:29.253Z,4
2022-11-30T10:46:28.657Z,4
2022-11-30T10:47:27.859Z,6
2022-11-30T10:48:27.961Z,6
2022-11-30T10:49:29.280Z,6
2022-11-30T10:50:29.380Z,6
2022-11-30T10:51:28.738Z,6
2022-11-30T10:52:29.175Z,6
2022-11-30T10:53:28.182Z,6
2022-11-30T10:54:29.015Z,6
2022-11-30T10:55:29.246Z,6
2022-11-30T10:56:29.358Z,6
2022-11-30T10:57:28.704Z,6
2022-11-30T10:58:28.125Z,6
2022-11-30T10:59:29.309Z,6
2022-11-30T11:00:28.756Z,6
2022-11-30T11:01:29.675Z,6
2022-11-30T11:02:29.381Z,5
2022-11-30T11:03:29.135Z,5
2022-11-30T11:04:29.503Z,5
2022-11-30T11:05:28.763Z,5
2022-11-30T11:06:29.247Z,5
2022-11-30T11:07:30.156Z,5
2022-11-30T11:08:29.203Z,5
2022-11-30T11:09:29.297Z,5
2022-11-30T11:10:28.475Z,5
2022-11-30T11:11:28.798Z,5
2022-11-30T11:12:29.274Z,5
2022-11-30T11:13:29.506Z,5
2022-11-30T11:14:31.316Z,5
2022-11-30T11:15:29.551Z,5
2022-11-30T11:16:29.354Z,5
2022-11-30T11:17:29.272Z,3
2022-11-30T11:18:28.880Z,3
2022-11-30T11:19:29.124Z,3
2022-11-30T11:20:29.074Z,3
2022-11-30T11:21:28.514Z,3
2022-11-30T11:22:28.753Z,3
2022-11-30T11:23:29.015Z,3
2022-11-30T11:24:29.154Z,3
2022-11-30T11:25:29.581Z,3
2022-11-30T11:26:28.962Z,3
2022-11-30T11:27:28.922Z,3
2022-11-30T11:28:29.324Z,3
2022-11-30T11:29:28.989Z,3
2022-11-30T11:30:29.013Z,3
2022-11-30T11:31:29.055Z,3
2022-11-30T11:32:28.711Z,1
2022-11-30T11:33:28.612Z,1
2022-11-30T11:34:29.518Z,1
2022-11-30T11:35:28.746Z,1
2022-11-30T11:36:28.705Z,1
2022-11-30T11:37:28.636Z,1
2022-11-30T11:38:28.934Z,1
2022-11-30T11:39:28.960Z,1
2022-11-30T11:40:29.336Z,1
2022-11-30T11:41:28.642Z,1
2022-11-30T11:42:30.825Z,1
2022-11-30T11:43:29.259Z,1
2022-11-30T11:44:28.794Z,1
2022-11-30T11:45:29.344Z,1
2022-11-30T11:46:29.299Z,1
2022-11-30T11:47:29.413Z,6
2022-11-30T11:48:36.972Z,6
2022-11-30T11:49:29.187Z,6
2022-11-30T11:51:12.902Z,6
2022-11-30T11:51:28.520Z,6
2022-11-30T11:52:29.038Z,6
2022-11-30T11:53:29.917Z,6
2022-11-30T11:54:29.407Z,6
2022-11-30T11:55:28.725Z,6
2022-11-30T11:56:29.177Z,6
2022-11-30T11:57:28.240Z,6
2022-11-30T11:58:28.356Z,6
2022-11-30T11:59:36.639Z,6
2022-11-30T12:00:29.342Z,6
2022-11-30T12:01:59.183Z,6
2022-11-30T12:02:28.687Z,5
2022-11-30T12:03:29.361Z,5
2022-11-30T12:04:29.458Z,5
2022-11-30T12:05:27.589Z,5
2022-11-30T12:06:29.946Z,5
2022-11-30T12:08:29.190Z,5
2022-11-30T12:09:28.822Z,5
2022-11-30T12:11:04.019Z,5
2022-11-30T12:18:36.310Z,5
2022-11-30T12:22:29.065Z,5
2022-11-30T12:29:29.251Z,5
2022-11-30T12:33:29.532Z,3
2022-11-30T12:41:28.919Z,3
2022-11-30T12:42:29.404Z,3
2022-11-30T12:43:28.849Z,3
2022-11-30T12:51:34.171Z,1
2022-11-30T13:01:28.900Z,1
2022-11-30T13:04:27.743Z,7
2022-11-30T13:07:29.904Z,7
2022-11-30T13:17:29.388Z,4
2022-11-30T13:18:29.494Z,4
2022-11-30T13:30:29.720Z,4
2022-11-30T13:33:09.425Z,7
2022-11-30T13:33:29.239Z,7
2022-11-30T13:34:29.164Z,7
2022-11-30T13:35:29.701Z,7
2022-11-30T13:36:28.957Z,7
2022-11-30T13:38:59.152Z,7
2022-11-30T13:39:29.194Z,7
2022-11-30T13:40:29.547Z,7
2022-11-30T13:41:28.947Z,7
2022-11-30T13:42:30.168Z,7
2022-11-30T13:45:29.233Z,7
2022-11-30T13:46:29.579Z,7
2022-11-30T13:48:28.976Z,11
2022-11-30T13:50:29.250Z,11
2022-11-30T13:51:29.708Z,11
2022-11-30T13:53:28.931Z,11
2022-11-30T13:54:40.037Z,11
2022-11-30T13:55:28.782Z,11
2022-11-30T13:56:29.447Z,11
2022-11-30T13:57:28.863Z,11
2022-11-30T13:58:29.323Z,11
2022-11-30T13:59:28.879Z,11
2022-11-30T14:00:29.518Z,11
2022-11-30T14:02:30.015Z,4
2022-11-30T14:03:29.021Z,4
2022-11-30T14:04:29.406Z,4
2022-11-30T14:05:29.603Z,4
2022-11-30T14:07:29.266Z,4
2022-11-30T14:08:29.321Z,4
2022-11-30T14:10:29.029Z,4
2022-11-30T14:11:29.535Z,4
2022-11-30T14:12:28.865Z,4
2022-11-30T14:13:28.877Z,4
2022-11-30T14:14:29.301Z,4
2022-11-30T14:15:28.930Z,4
2022-11-30T14:16:29.253Z,4
2022-11-30T14:17:29.183Z,6
2022-11-30T14:18:29.715Z,6
2022-11-30T14:19:28.919Z,6
2022-11-30T14:20:32.095Z,6
2022-11-30T14:21:29.515Z,6
2022-11-30T14:23:28.887Z,6
2022-11-30T14:24:29.158Z,6
2022-11-30T14:25:29.686Z,6
2022-11-30T14:26:29.153Z,6
2022-11-30T14:27:29.757Z,6
2022-11-30T14:28:29.037Z,6
2022-11-30T14:29:29.430Z,6
2022-11-30T14:30:28.841Z,6
2022-11-30T14:31:29.601Z,6
2022-11-30T14:32:29.549Z,1
2022-11-30T14:34:29.071Z,1
2022-11-30T14:35:29.365Z,1
2022-11-30T14:36:28.926Z,1
2022-11-30T14:37:28.808Z,1
2022-11-30T14:38:29.133Z,1
2022-11-30T14:39:29.588Z,1
2022-11-30T14:40:31.343Z,1
2022-11-30T14:41:29.448Z,1
2022-11-30T14:43:29.274Z,1
2022-11-30T14:44:29.188Z,1
2022-11-30T14:45:29.133Z,1
2022-11-30T14:46:29.276Z,1
2022-11-30T14:47:29.320Z,3
2022-11-30T14:48:29.337Z,3
2022-11-30T14:50:29.183Z,3
2022-11-30T14:51:29.557Z,3
2022-11-30T14:52:32.263Z,3
2022-11-30T14:53:29.500Z,3
2022-11-30T14:54:29.538Z,3
2022-11-30T14:55:29.314Z,3
2022-11-30T14:57:30.302Z,3
2022-11-30T14:58:29.259Z,3
2022-11-30T14:59:29.615Z,3
2022-11-30T15:00:29.097Z,3
2022-11-30T15:01:29.663Z,3
2022-11-30T15:02:29.889Z,4
2022-11-30T15:03:28.952Z,4
2022-11-30T15:04:29.427Z,4
2022-11-30T15:05:29.680Z,4
2022-11-30T15:06:29.073Z,4
2022-11-30T15:07:29.856Z,4
2022-11-30T15:08:28.875Z,4
2022-11-30T15:09:28.845Z,4
2022-11-30T15:11:29.258Z,4
2022-11-30T15:12:29.715Z,4
2022-11-30T15:13:28.904Z,4
2022-11-30T15:14:29.208Z,4
2022-11-30T15:15:29.496Z,4
2022-11-30T15:16:29.709Z,4
2022-11-30T15:17:29.050Z,4
2022-11-30T15:18:29.743Z,4
2022-11-30T15:19:29.411Z,4
2022-11-30T15:20:28.871Z,4
2022-11-30T15:21:29.055Z,4
2022-11-30T15:22:29.422Z,4
2022-11-30T15:23:29.151Z,4
2022-11-30T15:24:29.554Z,4
2022-11-30T15:25:29.889Z,4
2022-11-30T15:26:29.273Z,4
2022-11-30T15:27:29.597Z,4
2022-11-30T15:28:29.044Z,4
2022-11-30T15:29:29.712Z,4
2022-11-30T15:30:29.241Z,4
2022-11-30T15:31:28.929Z,4
2022-11-30T15:32:28.927Z,5
2022-11-30T15:33:28.885Z,5
2022-11-30T15:34:29.330Z,5
2022-11-30T15:36:28.204Z,5
2022-11-30T15:37:29.117Z,5
2022-11-30T15:38:29.654Z,5
2022-11-30T15:39:29.684Z,5
2022-11-30T15:40:29.156Z,5
2022-11-30T15:41:29.669Z,5
2022-11-30T15:42:29.151Z,5
2022-11-30T15:43:29.273Z,5
2022-11-30T15:44:29.791Z,5
2022-11-30T15:45:29.428Z,5
2022-11-30T15:47:29.639Z,1
2022-11-30T15:48:29.008Z,1
2022-11-30T15:49:29.456Z,1
2022-11-30T15:50:29.006Z,1
2022-11-30T15:51:29.365Z,1
2022-11-30T15:52:28.836Z,1
2022-11-30T15:53:29.085Z,1
2022-11-30T15:54:28.852Z,1
2022-11-30T15:55:29.144Z,1
2022-11-30T15:59:28.960Z,1
2022-11-30T16:00:29.072Z,1
2022-11-30T16:01:30.195Z,1
2022-11-30T16:02:29.447Z,1
2022-11-30T16:03:29.567Z,1
2022-11-30T16:04:29.229Z,1
2022-11-30T16:05:29.879Z,1
2022-11-30T16:06:28.980Z,1
2022-11-30T16:07:28.869Z,1
2022-11-30T16:08:28.933Z,1
2022-11-30T16:09:29.223Z,1
2022-11-30T16:10:29.598Z,1
2022-11-30T16:11:29.081Z,1
2022-11-30T16:12:29.701Z,1
2022-11-30T16:13:29.005Z,1
2022-11-30T16:14:29.632Z,1
2022-11-30T16:15:28.972Z,1